sensor_id;sensor_type;location;lat;lon;timestamp;temperature;humidity
49132;DHT22;35149;51.196;6.204;2023-11-22T00:01:05;10.20;74.40
49132;DHT22;35149;51.196;6.204;2023-11-22T00:03:32;10.20;74.40
49132;DHT22;35149;51.196;6.204;2023-11-22T00:05:59;10.20;74.30
49132;DHT22;35149;51.196;6.204;2023-11-22T00:08:26;10.20;74.00
49132;DHT22;35149;51.196;6.204;2023-11-22T00:10:52;10.20;73.60
49132;DHT22;35149;51.196;6.204;2023-11-22T00:13:22;10.10;73.30
49132;DHT22;35149;51.196;6.204;2023-11-22T00:15:49;10.10;73.10
49132;DHT22;35149;51.196;6.204;2023-11-22T00:18:17;10.00;72.90
49132;DHT22;35149;51.196;6.204;2023-11-22T00:20:46;10.00;72.80
49132;DHT22;35149;51.196;6.204;2023-11-22T00:23:15;9.90;72.60
49132;DHT22;35149;51.196;6.204;2023-11-22T00:25:42;9.80;72.50
49132;DHT22;35149;51.196;6.204;2023-11-22T00:28:09;9.70;72.30
49132;DHT22;35149;51.196;6.204;2023-11-22T00:30:36;9.70;72.30
49132;DHT22;35149;51.196;6.204;2023-11-22T00:33:03;9.60;72.30
49132;DHT22;35149;51.196;6.204;2023-11-22T00:35:31;9.50;72.10
49132;DHT22;35149;51.196;6.204;2023-11-22T00:38:00;9.40;72.10
49132;DHT22;35149;51.196;6.204;2023-11-22T00:40:27;9.40;72.20
49132;DHT22;35149;51.196;6.204;2023-11-22T00:42:58;9.30;72.20
49132;DHT22;35149;51.196;6.204;2023-11-22T00:45:25;9.20;72.30
49132;DHT22;35149;51.196;6.204;2023-11-22T00:47:52;9.10;72.50
49132;DHT22;35149;51.196;6.204;2023-11-22T00:50:19;9.10;72.80
49132;DHT22;35149;51.196;6.204;2023-11-22T00:52:47;9.10;73.20
49132;DHT22;35149;51.196;6.204;2023-11-22T00:55:15;9.00;73.50
49132;DHT22;35149;51.196;6.204;2023-11-22T00:57:42;9.00;73.90
49132;DHT22;35149;51.196;6.204;2023-11-22T01:00:10;9.00;74.10
49132;DHT22;35149;51.196;6.204;2023-11-22T01:02:40;9.00;74.30
49132;DHT22;35149;51.196;6.204;2023-11-22T01:05:08;9.00;74.40
49132;DHT22;35149;51.196;6.204;2023-11-22T01:07:38;9.10;74.40
49132;DHT22;35149;51.196;6.204;2023-11-22T01:10:07;9.10;74.50
49132;DHT22;35149;51.196;6.204;2023-11-22T01:12:34;9.10;74.50
49132;DHT22;35149;51.196;6.204;2023-11-22T01:15:04;9.10;74.50
49132;DHT22;35149;51.196;6.204;2023-11-22T01:17:32;9.10;74.50
49132;DHT22;35149;51.196;6.204;2023-11-22T01:20:01;9.10;74.40
49132;DHT22;35149;51.196;6.204;2023-11-22T01:22:28;9.10;74.10
49132;DHT22;35149;51.196;6.204;2023-11-22T01:24:55;9.10;73.90
49132;DHT22;35149;51.196;6.204;2023-11-22T01:27:22;9.10;73.70
49132;DHT22;35149;51.196;6.204;2023-11-22T01:29:50;9.10;73.70
49132;DHT22;35149;51.196;6.204;2023-11-22T01:32:17;9.00;73.60
49132;DHT22;35149;51.196;6.204;2023-11-22T01:34:43;9.00;73.60
49132;DHT22;35149;51.196;6.204;2023-11-22T01:37:10;9.00;73.80
49132;DHT22;35149;51.196;6.204;2023-11-22T01:39:39;9.00;74.00
49132;DHT22;35149;51.196;6.204;2023-11-22T01:42:07;8.90;74.20
49132;DHT22;35149;51.196;6.204;2023-11-22T01:44:35;8.90;74.40
49132;DHT22;35149;51.196;6.204;2023-11-22T01:47:02;8.90;74.40
49132;DHT22;35149;51.196;6.204;2023-11-22T01:49:31;8.90;74.60
49132;DHT22;35149;51.196;6.204;2023-11-22T01:51:59;8.90;74.70
49132;DHT22;35149;51.196;6.204;2023-11-22T01:54:28;9.00;74.80
49132;DHT22;35149;51.196;6.204;2023-11-22T01:56:56;9.00;74.80
49132;DHT22;35149;51.196;6.204;2023-11-22T01:59:23;9.00;74.70
49132;DHT22;35149;51.196;6.204;2023-11-22T02:01:53;9.00;74.60
49132;DHT22;35149;51.196;6.204;2023-11-22T02:04:20;9.00;74.70
49132;DHT22;35149;51.196;6.204;2023-11-22T02:06:48;9.00;74.70
49132;DHT22;35149;51.196;6.204;2023-11-22T02:09:15;9.00;74.50
49132;DHT22;35149;51.196;6.204;2023-11-22T02:11:42;9.00;74.40
49132;DHT22;35149;51.196;6.204;2023-11-22T02:14:11;9.00;74.40
49132;DHT22;35149;51.196;6.204;2023-11-22T02:16:40;9.00;74.30
49132;DHT22;35149;51.196;6.204;2023-11-22T02:19:08;9.00;74.20
49132;DHT22;35149;51.196;6.204;2023-11-22T02:21:39;8.90;74.10
49132;DHT22;35149;51.196;6.204;2023-11-22T02:24:06;8.90;74.10
49132;DHT22;35149;51.196;6.204;2023-11-22T02:26:33;8.90;74.00
49132;DHT22;35149;51.196;6.204;2023-11-22T02:29:00;8.80;74.10
49132;DHT22;35149;51.196;6.204;2023-11-22T02:31:27;8.80;74.30
49132;DHT22;35149;51.196;6.204;2023-11-22T02:33:54;8.80;74.60
49132;DHT22;35149;51.196;6.204;2023-11-22T02:36:24;8.70;74.70
49132;DHT22;35149;51.196;6.204;2023-11-22T02:38:51;8.80;75.00
49132;DHT22;35149;51.196;6.204;2023-11-22T02:41:18;8.70;75.00
49132;DHT22;35149;51.196;6.204;2023-11-22T02:43:45;8.70;75.10
49132;DHT22;35149;51.196;6.204;2023-11-22T02:46:12;8.80;75.30
49132;DHT22;35149;51.196;6.204;2023-11-22T02:48:39;8.80;75.10
49132;DHT22;35149;51.196;6.204;2023-11-22T02:51:06;8.80;75.10
49132;DHT22;35149;51.196;6.204;2023-11-22T02:53:33;8.80;75.00
49132;DHT22;35149;51.196;6.204;2023-11-22T02:56:00;8.80;75.00
49132;DHT22;35149;51.196;6.204;2023-11-22T02:58:29;8.80;75.00
49132;DHT22;35149;51.196;6.204;2023-11-22T03:00:56;8.80;75.10
49132;DHT22;35149;51.196;6.204;2023-11-22T03:03:23;8.80;75.00
49132;DHT22;35149;51.196;6.204;2023-11-22T03:05:50;8.80;75.50
49132;DHT22;35149;51.196;6.204;2023-11-22T03:08:19;8.90;74.90
49132;DHT22;35149;51.196;6.204;2023-11-22T03:10:48;8.80;74.80
49132;DHT22;35149;51.196;6.204;2023-11-22T03:13:17;8.80;74.90
49132;DHT22;35149;51.196;6.204;2023-11-22T03:15:45;8.80;74.80
49132;DHT22;35149;51.196;6.204;2023-11-22T03:18:12;8.80;74.80
49132;DHT22;35149;51.196;6.204;2023-11-22T03:20:39;8.80;74.80
49132;DHT22;35149;51.196;6.204;2023-11-22T03:23:06;8.80;74.80
49132;DHT22;35149;51.196;6.204;2023-11-22T03:25:33;8.80;74.80
49132;DHT22;35149;51.196;6.204;2023-11-22T03:27:59;8.80;74.80
49132;DHT22;35149;51.196;6.204;2023-11-22T03:30:26;8.80;74.70
49132;DHT22;35149;51.196;6.204;2023-11-22T03:32:52;8.80;74.70
49132;DHT22;35149;51.196;6.204;2023-11-22T03:35:23;8.80;74.70
49132;DHT22;35149;51.196;6.204;2023-11-22T03:37:50;8.80;74.70
49132;DHT22;35149;51.196;6.204;2023-11-22T03:40:16;8.80;74.90
49132;DHT22;35149;51.196;6.204;2023-11-22T03:42:43;8.80;75.00
49132;DHT22;35149;51.196;6.204;2023-11-22T03:45:11;8.80;75.10
49132;DHT22;35149;51.196;6.204;2023-11-22T03:47:39;8.80;75.00
49132;DHT22;35149;51.196;6.204;2023-11-22T03:50:07;8.80;75.00
49132;DHT22;35149;51.196;6.204;2023-11-22T03:52:33;8.90;74.90
49132;DHT22;35149;51.196;6.204;2023-11-22T03:55:00;8.90;74.70
49132;DHT22;35149;51.196;6.204;2023-11-22T03:57:27;8.90;74.70
49132;DHT22;35149;51.196;6.204;2023-11-22T03:59:53;8.90;74.80
49132;DHT22;35149;51.196;6.204;2023-11-22T04:02:22;8.90;74.80
49132;DHT22;35149;51.196;6.204;2023-11-22T04:04:49;9.00;74.90
49132;DHT22;35149;51.196;6.204;2023-11-22T04:07:16;8.90;74.70
49132;DHT22;35149;51.196;6.204;2023-11-22T04:09:42;9.00;74.80
49132;DHT22;35149;51.196;6.204;2023-11-22T04:12:11;9.00;74.70
49132;DHT22;35149;51.196;6.204;2023-11-22T04:14:41;9.00;74.60
49132;DHT22;35149;51.196;6.204;2023-11-22T04:17:08;9.00;74.50
49132;DHT22;35149;51.196;6.204;2023-11-22T04:19:35;9.00;74.60
49132;DHT22;35149;51.196;6.204;2023-11-22T04:22:02;9.00;74.50
49132;DHT22;35149;51.196;6.204;2023-11-22T04:24:28;9.00;74.40
49132;DHT22;35149;51.196;6.204;2023-11-22T04:26:56;9.00;74.90
49132;DHT22;35149;51.196;6.204;2023-11-22T04:29:23;9.00;74.30
49132;DHT22;35149;51.196;6.204;2023-11-22T04:31:52;9.00;74.40
49132;DHT22;35149;51.196;6.204;2023-11-22T04:34:21;9.00;74.40
49132;DHT22;35149;51.196;6.204;2023-11-22T04:36:48;9.00;74.40
49132;DHT22;35149;51.196;6.204;2023-11-22T04:39:14;9.00;74.20
49132;DHT22;35149;51.196;6.204;2023-11-22T04:41:41;9.00;75.00
49132;DHT22;35149;51.196;6.204;2023-11-22T04:44:08;9.00;74.20
49132;DHT22;35149;51.196;6.204;2023-11-22T04:46:35;9.00;74.80
49132;DHT22;35149;51.196;6.204;2023-11-22T04:49:01;8.90;74.20
49132;DHT22;35149;51.196;6.204;2023-11-22T04:51:28;8.90;74.30
49132;DHT22;35149;51.196;6.204;2023-11-22T04:53:55;8.90;74.50
49132;DHT22;35149;51.196;6.204;2023-11-22T04:56:22;8.90;74.50
49132;DHT22;35149;51.196;6.204;2023-11-22T04:58:49;8.90;74.40
49132;DHT22;35149;51.196;6.204;2023-11-22T05:01:15;8.90;74.30
49132;DHT22;35149;51.196;6.204;2023-11-22T05:03:46;8.80;74.40
49132;DHT22;35149;51.196;6.204;2023-11-22T05:06:14;8.80;74.30
49132;DHT22;35149;51.196;6.204;2023-11-22T05:08:43;8.80;74.20
49132;DHT22;35149;51.196;6.204;2023-11-22T05:11:15;8.80;74.20
49132;DHT22;35149;51.196;6.204;2023-11-22T05:13:42;8.80;74.20
49132;DHT22;35149;51.196;6.204;2023-11-22T05:16:09;8.80;74.30
49132;DHT22;35149;51.196;6.204;2023-11-22T05:18:36;8.80;74.20
49132;DHT22;35149;51.196;6.204;2023-11-22T05:21:07;8.80;74.20
49132;DHT22;35149;51.196;6.204;2023-11-22T05:23:34;8.70;74.10
49132;DHT22;35149;51.196;6.204;2023-11-22T05:26:06;8.70;73.90
49132;DHT22;35149;51.196;6.204;2023-11-22T05:28:34;8.70;73.80
49132;DHT22;35149;51.196;6.204;2023-11-22T05:31:00;8.70;73.80
49132;DHT22;35149;51.196;6.204;2023-11-22T05:33:27;8.70;73.90
49132;DHT22;35149;51.196;6.204;2023-11-22T05:35:54;8.60;73.90
49132;DHT22;35149;51.196;6.204;2023-11-22T05:38:20;8.60;73.90
49132;DHT22;35149;51.196;6.204;2023-11-22T05:40:48;8.50;73.90
49132;DHT22;35149;51.196;6.204;2023-11-22T05:43:14;8.50;73.90
49132;DHT22;35149;51.196;6.204;2023-11-22T05:45:41;8.50;74.00
49132;DHT22;35149;51.196;6.204;2023-11-22T05:48:08;8.50;74.00
49132;DHT22;35149;51.196;6.204;2023-11-22T05:50:37;8.50;74.10
49132;DHT22;35149;51.196;6.204;2023-11-22T05:53:07;8.50;74.20
49132;DHT22;35149;51.196;6.204;2023-11-22T05:55:33;8.50;74.20
49132;DHT22;35149;51.196;6.204;2023-11-22T05:58:02;8.50;74.30
49132;DHT22;35149;51.196;6.204;2023-11-22T06:00:29;8.50;74.30
49132;DHT22;35149;51.196;6.204;2023-11-22T06:02:56;8.50;74.20
49132;DHT22;35149;51.196;6.204;2023-11-22T06:05:25;8.50;74.20
49132;DHT22;35149;51.196;6.204;2023-11-22T06:07:52;8.50;74.10
49132;DHT22;35149;51.196;6.204;2023-11-22T06:10:18;8.50;74.00
49132;DHT22;35149;51.196;6.204;2023-11-22T06:12:45;8.50;74.10
49132;DHT22;35149;51.196;6.204;2023-11-22T06:15:12;8.50;74.00
49132;DHT22;35149;51.196;6.204;2023-11-22T06:17:38;8.50;74.70
49132;DHT22;35149;51.196;6.204;2023-11-22T06:20:06;8.50;74.00
49132;DHT22;35149;51.196;6.204;2023-11-22T06:22:33;8.50;73.90
49132;DHT22;35149;51.196;6.204;2023-11-22T06:24:59;8.50;73.90
49132;DHT22;35149;51.196;6.204;2023-11-22T06:27:26;8.50;73.90
49132;DHT22;35149;51.196;6.204;2023-11-22T06:29:53;8.50;73.90
49132;DHT22;35149;51.196;6.204;2023-11-22T06:32:19;8.50;73.80
49132;DHT22;35149;51.196;6.204;2023-11-22T06:34:46;8.50;73.60
49132;DHT22;35149;51.196;6.204;2023-11-22T06:37:13;8.50;73.60
49132;DHT22;35149;51.196;6.204;2023-11-22T06:39:39;8.40;73.40
49132;DHT22;35149;51.196;6.204;2023-11-22T06:42:08;8.40;73.40
49132;DHT22;35149;51.196;6.204;2023-11-22T06:44:35;8.30;73.30
49132;DHT22;35149;51.196;6.204;2023-11-22T06:47:02;8.30;73.20
49132;DHT22;35149;51.196;6.204;2023-11-22T06:49:28;8.30;73.20
49132;DHT22;35149;51.196;6.204;2023-11-22T06:52:01;8.30;73.20
49132;DHT22;35149;51.196;6.204;2023-11-22T06:54:28;8.30;73.40
49132;DHT22;35149;51.196;6.204;2023-11-22T06:56:54;8.30;73.60
49132;DHT22;35149;51.196;6.204;2023-11-22T06:59:21;8.30;73.70
49132;DHT22;35149;51.196;6.204;2023-11-22T07:01:48;8.30;73.90
49132;DHT22;35149;51.196;6.204;2023-11-22T07:04:15;8.30;73.90
49132;DHT22;35149;51.196;6.204;2023-11-22T07:06:42;8.30;74.00
49132;DHT22;35149;51.196;6.204;2023-11-22T07:09:10;8.30;74.00
49132;DHT22;35149;51.196;6.204;2023-11-22T07:11:40;8.30;73.90
49132;DHT22;35149;51.196;6.204;2023-11-22T07:14:07;8.30;73.80
49132;DHT22;35149;51.196;6.204;2023-11-22T07:16:36;8.30;73.70
49132;DHT22;35149;51.196;6.204;2023-11-22T07:19:03;8.30;73.60
49132;DHT22;35149;51.196;6.204;2023-11-22T07:21:33;8.30;73.40
49132;DHT22;35149;51.196;6.204;2023-11-22T07:24:00;8.30;73.20
49132;DHT22;35149;51.196;6.204;2023-11-22T07:26:29;8.30;73.10
49132;DHT22;35149;51.196;6.204;2023-11-22T07:28:56;8.30;73.10
49132;DHT22;35149;51.196;6.204;2023-11-22T07:31:23;8.20;73.10
49132;DHT22;35149;51.196;6.204;2023-11-22T07:33:51;8.20;73.20
49132;DHT22;35149;51.196;6.204;2023-11-22T07:36:18;8.20;73.30
49132;DHT22;35149;51.196;6.204;2023-11-22T07:38:47;8.20;73.40
49132;DHT22;35149;51.196;6.204;2023-11-22T07:41:14;8.20;73.50
49132;DHT22;35149;51.196;6.204;2023-11-22T07:43:43;8.20;73.60
49132;DHT22;35149;51.196;6.204;2023-11-22T07:46:11;8.20;73.60
49132;DHT22;35149;51.196;6.204;2023-11-22T07:48:44;8.20;73.70
49132;DHT22;35149;51.196;6.204;2023-11-22T07:51:16;8.30;73.70
49132;DHT22;35149;51.196;6.204;2023-11-22T07:53:43;8.30;73.70
49132;DHT22;35149;51.196;6.204;2023-11-22T07:56:10;8.30;73.70
49132;DHT22;35149;51.196;6.204;2023-11-22T07:58:38;8.30;73.70
49132;DHT22;35149;51.196;6.204;2023-11-22T08:01:06;8.30;73.70
49132;DHT22;35149;51.196;6.204;2023-11-22T08:03:41;8.40;73.80
49132;DHT22;35149;51.196;6.204;2023-11-22T08:06:13;8.40;73.70
49132;DHT22;35149;51.196;6.204;2023-11-22T08:08:40;8.50;73.60
49132;DHT22;35149;51.196;6.204;2023-11-22T08:11:07;8.50;73.60
49132;DHT22;35149;51.196;6.204;2023-11-22T08:13:41;8.50;73.40
49132;DHT22;35149;51.196;6.204;2023-11-22T08:16:17;8.50;73.30
49132;DHT22;35149;51.196;6.204;2023-11-22T08:18:46;8.50;73.40
49132;DHT22;35149;51.196;6.204;2023-11-22T08:21:14;8.60;73.30
49132;DHT22;35149;51.196;6.204;2023-11-22T08:23:41;8.60;73.40
49132;DHT22;35149;51.196;6.204;2023-11-22T08:26:08;8.60;73.40
49132;DHT22;35149;51.196;6.204;2023-11-22T08:28:37;8.60;73.40
49132;DHT22;35149;51.196;6.204;2023-11-22T08:31:04;8.70;73.40
49132;DHT22;35149;51.196;6.204;2023-11-22T08:33:34;8.80;73.60
49132;DHT22;35149;51.196;6.204;2023-11-22T08:36:04;8.70;73.50
49132;DHT22;35149;51.196;6.204;2023-11-22T08:38:31;8.80;73.30
49132;DHT22;35149;51.196;6.204;2023-11-22T08:41:04;8.80;73.10
49132;DHT22;35149;51.196;6.204;2023-11-22T08:43:38;8.80;73.00
49132;DHT22;35149;51.196;6.204;2023-11-22T08:46:04;8.90;73.00
49132;DHT22;35149;51.196;6.204;2023-11-22T08:48:40;8.90;72.70
49132;DHT22;35149;51.196;6.204;2023-11-22T08:51:09;8.90;72.70
49132;DHT22;35149;51.196;6.204;2023-11-22T08:53:37;8.90;72.80
49132;DHT22;35149;51.196;6.204;2023-11-22T08:56:04;8.90;72.70
49132;DHT22;35149;51.196;6.204;2023-11-22T08:58:34;8.90;72.60
49132;DHT22;35149;51.196;6.204;2023-11-22T09:01:01;8.90;72.40
49132;DHT22;35149;51.196;6.204;2023-11-22T09:03:33;9.00;72.50
49132;DHT22;35149;51.196;6.204;2023-11-22T09:06:06;8.90;72.60
49132;DHT22;35149;51.196;6.204;2023-11-22T09:08:34;9.00;72.60
49132;DHT22;35149;51.196;6.204;2023-11-22T09:11:02;9.00;72.60
49132;DHT22;35149;51.196;6.204;2023-11-22T09:13:32;9.00;72.60
49132;DHT22;35149;51.196;6.204;2023-11-22T09:15:59;9.10;72.60
49132;DHT22;35149;51.196;6.204;2023-11-22T09:18:26;9.10;72.40
49132;DHT22;35149;51.196;6.204;2023-11-22T09:20:53;9.10;72.40
49132;DHT22;35149;51.196;6.204;2023-11-22T09:23:22;9.20;72.20
49132;DHT22;35149;51.196;6.204;2023-11-22T09:25:51;9.20;71.90
49132;DHT22;35149;51.196;6.204;2023-11-22T09:28:17;9.20;71.80
49132;DHT22;35149;51.196;6.204;2023-11-22T09:30:46;9.30;71.80
49132;DHT22;35149;51.196;6.204;2023-11-22T09:33:17;9.30;71.80
49132;DHT22;35149;51.196;6.204;2023-11-22T09:35:47;9.30;71.50
49132;DHT22;35149;51.196;6.204;2023-11-22T09:38:15;9.30;71.50
49132;DHT22;35149;51.196;6.204;2023-11-22T09:40:44;9.30;71.60
49132;DHT22;35149;51.196;6.204;2023-11-22T09:43:13;9.30;71.60
49132;DHT22;35149;51.196;6.204;2023-11-22T09:45:47;9.30;71.60
49132;DHT22;35149;51.196;6.204;2023-11-22T09:48:21;9.30;71.50
49132;DHT22;35149;51.196;6.204;2023-11-22T09:51:08;9.40;71.50
49132;DHT22;35149;51.196;6.204;2023-11-22T09:53:40;9.50;71.10
49132;DHT22;35149;51.196;6.204;2023-11-22T09:56:11;9.40;71.00
49132;DHT22;35149;51.196;6.204;2023-11-22T09:58:41;9.50;71.10
49132;DHT22;35149;51.196;6.204;2023-11-22T10:01:11;9.50;71.00
49132;DHT22;35149;51.196;6.204;2023-11-22T10:03:39;9.50;70.90
49132;DHT22;35149;51.196;6.204;2023-11-22T10:06:07;9.50;70.80
49132;DHT22;35149;51.196;6.204;2023-11-22T10:08:34;9.60;70.70
49132;DHT22;35149;51.196;6.204;2023-11-22T10:11:04;9.60;70.50
49132;DHT22;35149;51.196;6.204;2023-11-22T10:13:31;9.60;70.50
49132;DHT22;35149;51.196;6.204;2023-11-22T10:16:14;9.50;70.20
49132;DHT22;35149;51.196;6.204;2023-11-22T10:18:43;9.50;69.80
49132;DHT22;35149;51.196;6.204;2023-11-22T10:21:28;9.50;70.80
49132;DHT22;35149;51.196;6.204;2023-11-22T10:24:00;9.40;69.90
49132;DHT22;35149;51.196;6.204;2023-11-22T10:26:31;9.40;70.30
49132;DHT22;35149;51.196;6.204;2023-11-22T10:29:01;9.50;70.50
49132;DHT22;35149;51.196;6.204;2023-11-22T10:31:28;9.50;70.40
49132;DHT22;35149;51.196;6.204;2023-11-22T10:33:57;9.40;70.40
49132;DHT22;35149;51.196;6.204;2023-11-22T10:36:26;9.40;70.40
49132;DHT22;35149;51.196;6.204;2023-11-22T10:38:54;9.50;70.30
49132;DHT22;35149;51.196;6.204;2023-11-22T10:41:21;9.40;70.30
49132;DHT22;35149;51.196;6.204;2023-11-22T10:43:52;9.40;70.40
49132;DHT22;35149;51.196;6.204;2023-11-22T10:46:19;9.40;70.50
49132;DHT22;35149;51.196;6.204;2023-11-22T10:48:48;9.50;70.50
49132;DHT22;35149;51.196;6.204;2023-11-22T10:51:19;9.50;70.60
49132;DHT22;35149;51.196;6.204;2023-11-22T10:53:51;9.60;70.70
49132;DHT22;35149;51.196;6.204;2023-11-22T10:56:22;9.60;70.70
49132;DHT22;35149;51.196;6.204;2023-11-22T10:58:50;9.60;70.80
49132;DHT22;35149;51.196;6.204;2023-11-22T11:01:19;9.60;70.60
49132;DHT22;35149;51.196;6.204;2023-11-22T11:04:01;9.60;70.40
49132;DHT22;35149;51.196;6.204;2023-11-22T11:06:34;9.70;70.30
49132;DHT22;35149;51.196;6.204;2023-11-22T11:09:04;9.70;70.40
49132;DHT22;35149;51.196;6.204;2023-11-22T11:11:36;9.70;70.40
49132;DHT22;35149;51.196;6.204;2023-11-22T11:14:08;9.70;70.70
49132;DHT22;35149;51.196;6.204;2023-11-22T11:16:39;9.70;70.60
49132;DHT22;35149;51.196;6.204;2023-11-22T11:19:08;9.80;70.70
49132;DHT22;35149;51.196;6.204;2023-11-22T11:21:36;9.80;70.70
49132;DHT22;35149;51.196;6.204;2023-11-22T11:24:04;9.80;70.70
49132;DHT22;35149;51.196;6.204;2023-11-22T11:26:32;9.90;70.60
49132;DHT22;35149;51.196;6.204;2023-11-22T11:29:01;10.00;70.50
49132;DHT22;35149;51.196;6.204;2023-11-22T11:31:38;10.00;70.30
49132;DHT22;35149;51.196;6.204;2023-11-22T11:34:09;10.10;69.90
49132;DHT22;35149;51.196;6.204;2023-11-22T11:36:40;10.20;70.10
49132;DHT22;35149;51.196;6.204;2023-11-22T11:39:12;10.30;70.00
49132;DHT22;35149;51.196;6.204;2023-11-22T11:41:42;10.30;69.50
49132;DHT22;35149;51.196;6.204;2023-11-22T11:44:09;10.40;69.70
49132;DHT22;35149;51.196;6.204;2023-11-22T11:46:38;10.40;69.40
49132;DHT22;35149;51.196;6.204;2023-11-22T11:49:07;10.50;69.30
49132;DHT22;35149;51.196;6.204;2023-11-22T11:51:39;10.50;69.30
49132;DHT22;35149;51.196;6.204;2023-11-22T11:54:06;10.60;69.20
49132;DHT22;35149;51.196;6.204;2023-11-22T11:56:34;10.60;69.00
49132;DHT22;35149;51.196;6.204;2023-11-22T11:59:03;10.60;69.00
49132;DHT22;35149;51.196;6.204;2023-11-22T12:01:30;10.60;68.80
49132;DHT22;35149;51.196;6.204;2023-11-22T12:04:02;10.70;68.60
49132;DHT22;35149;51.196;6.204;2023-11-22T12:06:30;10.70;68.50
49132;DHT22;35149;51.196;6.204;2023-11-22T12:09:00;10.70;68.50
49132;DHT22;35149;51.196;6.204;2023-11-22T12:11:27;10.70;68.40
49132;DHT22;35149;51.196;6.204;2023-11-22T12:13:57;10.80;68.30
49132;DHT22;35149;51.196;6.204;2023-11-22T12:16:26;10.80;68.10
49132;DHT22;35149;51.196;6.204;2023-11-22T12:18:54;10.80;68.00
49132;DHT22;35149;51.196;6.204;2023-11-22T12:21:21;10.80;67.80
49132;DHT22;35149;51.196;6.204;2023-11-22T12:23:48;10.90;67.50
49132;DHT22;35149;51.196;6.204;2023-11-22T12:26:18;10.90;67.20
49132;DHT22;35149;51.196;6.204;2023-11-22T12:28:47;10.80;66.90
49132;DHT22;35149;51.196;6.204;2023-11-22T12:31:29;10.90;67.00
49132;DHT22;35149;51.196;6.204;2023-11-22T12:34:00;10.80;66.80
49132;DHT22;35149;51.196;6.204;2023-11-22T12:36:29;10.80;66.70
49132;DHT22;35149;51.196;6.204;2023-11-22T12:38:56;10.80;66.40
49132;DHT22;35149;51.196;6.204;2023-11-22T12:41:28;10.70;66.30
49132;DHT22;35149;51.196;6.204;2023-11-22T12:44:07;10.70;66.10
49132;DHT22;35149;51.196;6.204;2023-11-22T12:49:11;10.60;65.50
49132;DHT22;35149;51.196;6.204;2023-11-22T12:51:48;10.60;65.80
49132;DHT22;35149;51.196;6.204;2023-11-22T12:54:20;10.60;65.60
49132;DHT22;35149;51.196;6.204;2023-11-22T12:56:51;10.60;66.20
49132;DHT22;35149;51.196;6.204;2023-11-22T12:59:21;10.50;66.10
49132;DHT22;35149;51.196;6.204;2023-11-22T13:01:50;10.50;66.20
49132;DHT22;35149;51.196;6.204;2023-11-22T13:04:19;10.50;66.40
49132;DHT22;35149;51.196;6.204;2023-11-22T13:06:46;10.50;66.40
49132;DHT22;35149;51.196;6.204;2023-11-22T13:09:12;10.50;66.50
49132;DHT22;35149;51.196;6.204;2023-11-22T13:11:43;10.60;66.70
49132;DHT22;35149;51.196;6.204;2023-11-22T13:14:10;10.60;66.10
49132;DHT22;35149;51.196;6.204;2023-11-22T13:16:40;10.60;65.60
49132;DHT22;35149;51.196;6.204;2023-11-22T13:19:07;10.60;65.30
49132;DHT22;35149;51.196;6.204;2023-11-22T13:21:35;10.60;65.20
49132;DHT22;35149;51.196;6.204;2023-11-22T13:24:02;10.50;65.40
49132;DHT22;35149;51.196;6.204;2023-11-22T13:26:32;10.50;65.30
49132;DHT22;35149;51.196;6.204;2023-11-22T13:29:00;10.50;65.40
49132;DHT22;35149;51.196;6.204;2023-11-22T13:31:29;10.50;65.60
49132;DHT22;35149;51.196;6.204;2023-11-22T13:33:56;10.50;65.40
49132;DHT22;35149;51.196;6.204;2023-11-22T13:36:26;10.60;65.40
49132;DHT22;35149;51.196;6.204;2023-11-22T13:38:54;10.60;65.60
49132;DHT22;35149;51.196;6.204;2023-11-22T13:41:24;10.70;65.70
49132;DHT22;35149;51.196;6.204;2023-11-22T13:43:52;10.70;66.50
49132;DHT22;35149;51.196;6.204;2023-11-22T13:46:23;10.80;65.90
49132;DHT22;35149;51.196;6.204;2023-11-22T13:48:50;10.80;65.50
49132;DHT22;35149;51.196;6.204;2023-11-22T13:51:17;10.90;65.20
49132;DHT22;35149;51.196;6.204;2023-11-22T13:53:43;10.90;65.00
49132;DHT22;35149;51.196;6.204;2023-11-22T13:56:16;10.90;64.80
49132;DHT22;35149;51.196;6.204;2023-11-22T13:58:44;11.00;64.80
49132;DHT22;35149;51.196;6.204;2023-11-22T14:01:11;11.00;64.80
49132;DHT22;35149;51.196;6.204;2023-11-22T14:03:45;11.00;64.60
49132;DHT22;35149;51.196;6.204;2023-11-22T14:06:12;11.00;64.40
49132;DHT22;35149;51.196;6.204;2023-11-22T14:08:40;11.00;64.50
49132;DHT22;35149;51.196;6.204;2023-11-22T14:11:07;10.90;64.50
49132;DHT22;35149;51.196;6.204;2023-11-22T14:13:34;10.90;64.50
49132;DHT22;35149;51.196;6.204;2023-11-22T14:16:01;10.90;64.90
49132;DHT22;35149;51.196;6.204;2023-11-22T14:18:29;10.80;65.10
49132;DHT22;35149;51.196;6.204;2023-11-22T14:20:55;10.80;65.40
49132;DHT22;35149;51.196;6.204;2023-11-22T14:23:23;10.80;65.30
49132;DHT22;35149;51.196;6.204;2023-11-22T14:25:49;10.80;65.20
49132;DHT22;35149;51.196;6.204;2023-11-22T14:28:16;10.80;65.20
49132;DHT22;35149;51.196;6.204;2023-11-22T14:30:48;10.80;65.20
49132;DHT22;35149;51.196;6.204;2023-11-22T14:33:21;10.80;65.10
49132;DHT22;35149;51.196;6.204;2023-11-22T14:35:47;10.80;64.90
49132;DHT22;35149;51.196;6.204;2023-11-22T14:38:17;10.70;65.00
49132;DHT22;35149;51.196;6.204;2023-11-22T14:40:44;10.70;65.10
49132;DHT22;35149;51.196;6.204;2023-11-22T14:43:11;10.70;65.20
49132;DHT22;35149;51.196;6.204;2023-11-22T14:45:39;10.60;65.30
49132;DHT22;35149;51.196;6.204;2023-11-22T14:48:08;10.60;65.50
49132;DHT22;35149;51.196;6.204;2023-11-22T14:50:39;10.60;65.70
49132;DHT22;35149;51.196;6.204;2023-11-22T14:53:07;10.50;65.70
49132;DHT22;35149;51.196;6.204;2023-11-22T14:55:34;10.50;65.80
49132;DHT22;35149;51.196;6.204;2023-11-22T14:58:06;10.50;66.00
49132;DHT22;35149;51.196;6.204;2023-11-22T15:00:36;10.40;66.00
49132;DHT22;35149;51.196;6.204;2023-11-22T15:03:03;10.40;66.00
49132;DHT22;35149;51.196;6.204;2023-11-22T15:05:30;10.40;66.30
49132;DHT22;35149;51.196;6.204;2023-11-22T15:07:57;10.40;66.40
49132;DHT22;35149;51.196;6.204;2023-11-22T15:10:24;10.40;66.60
49132;DHT22;35149;51.196;6.204;2023-11-22T15:12:52;10.30;66.80
49132;DHT22;35149;51.196;6.204;2023-11-22T15:15:22;10.40;67.10
49132;DHT22;35149;51.196;6.204;2023-11-22T15:17:52;10.40;67.20
49132;DHT22;35149;51.196;6.204;2023-11-22T15:20:19;10.30;67.10
49132;DHT22;35149;51.196;6.204;2023-11-22T15:22:46;10.30;67.20
49132;DHT22;35149;51.196;6.204;2023-11-22T15:25:12;10.30;67.40
49132;DHT22;35149;51.196;6.204;2023-11-22T15:27:42;10.30;67.50
49132;DHT22;35149;51.196;6.204;2023-11-22T15:30:09;10.30;67.70
49132;DHT22;35149;51.196;6.204;2023-11-22T15:32:38;10.30;67.70
49132;DHT22;35149;51.196;6.204;2023-11-22T15:35:05;10.30;67.80
49132;DHT22;35149;51.196;6.204;2023-11-22T15:37:32;10.30;68.00
49132;DHT22;35149;51.196;6.204;2023-11-22T15:39:59;10.30;68.00
49132;DHT22;35149;51.196;6.204;2023-11-22T15:42:27;10.30;68.10
49132;DHT22;35149;51.196;6.204;2023-11-22T15:44:53;10.30;68.10
49132;DHT22;35149;51.196;6.204;2023-11-22T15:47:20;10.30;68.20
49132;DHT22;35149;51.196;6.204;2023-11-22T15:49:47;10.20;68.20
49132;DHT22;35149;51.196;6.204;2023-11-22T15:52:15;10.20;68.20